Time;durP1;ratioP1;P1;durP2;ratioP2;P2;SDS_P1;SDS_P2;PMS_P1;PMS_P2;Temp;Humidity;BMP_temperature;BMP_pressure;BME280_temperature;BME280_humidity;BME280_pressure;Samples;Min_cycle;Max_cycle;Signal;HPM_P1;HPM_P2
2023/08/06 00:01:21;;;;;;;2.20;2.10;;;;;;;;;;5093608;28;20452;-64
2023/08/06 00:03:47;;;;;;;5.20;2.23;;;;;;;;;;5093362;28;20429;-64
2023/08/06 00:06:15;;;;;;;3.07;2.87;;;;;;;;;;5093343;28;20410;-64
2023/08/06 00:08:43;;;;;;;2.90;2.80;;;;;;;;;;5092441;28;20537;-64
2023/08/06 00:11:09;;;;;;;2.70;2.50;;;;;;;;;;5093254;28;20777;-64
2023/08/06 00:13:38;;;;;;;3.20;3.00;;;;;;;;;;5093101;28;20503;-64
2023/08/06 00:16:13;;;;;;;3.30;2.87;;;;;;;;;;5093175;28;20430;-64
2023/08/06 00:18:39;;;;;;;3.10;2.90;;;;;;;;;;5092817;28;20479;-64
2023/08/06 00:21:05;;;;;;;3.77;3.40;;;;;;;;;;5093121;28;20449;-64
2023/08/06 00:23:33;;;;;;;3.10;3.00;;;;;;;;;;5092884;28;20428;-64
2023/08/06 00:25:59;;;;;;;2.87;2.67;;;;;;;;;;5092860;28;20432;-64
2023/08/06 00:28:25;;;;;;;3.20;3.00;;;;;;;;;;5092978;28;20876;-64
2023/08/06 00:30:55;;;;;;;2.63;2.53;;;;;;;;;;5092959;28;20410;-64
2023/08/06 00:33:23;;;;;;;2.40;2.30;;;;;;;;;;5092907;28;20498;-64
2023/08/06 00:35:52;;;;;;;5.23;2.53;;;;;;;;;;5092715;28;20412;-64
2023/08/06 00:38:18;;;;;;;6.10;2.83;;;;;;;;;;5092803;28;20955;-64
2023/08/06 00:40:44;;;;;;;3.57;2.70;;;;;;;;;;5092801;28;20426;-64
2023/08/06 00:43:10;;;;;;;3.43;2.40;;;;;;;;;;5092846;28;20516;-64
2023/08/06 00:45:41;;;;;;;3.13;2.80;;;;;;;;;;5092724;28;20434;-64
2023/08/06 00:48:07;;;;;;;2.73;2.53;;;;;;;;;;5092449;28;20817;-64
2023/08/06 00:50:33;;;;;;;2.27;2.07;;;;;;;;;;5092783;28;20894;-64
2023/08/06 00:53:00;;;;;;;6.73;2.00;;;;;;;;;;5092414;28;20433;-64
2023/08/06 00:55:28;;;;;;;2.50;2.30;;;;;;;;;;5092472;28;20915;-64
2023/08/06 00:57:56;;;;;;;3.10;2.60;;;;;;;;;;5092333;28;20561;-64
2023/08/06 01:00:22;;;;;;;1.93;1.83;;;;;;;;;;5092324;28;20404;-64
2023/08/06 01:02:49;;;;;;;3.37;2.47;;;;;;;;;;5092268;28;20857;-64
2023/08/06 01:05:15;;;;;;;2.27;2.17;;;;;;;;;;5092412;28;20432;-64
2023/08/06 01:07:41;;;;;;;2.77;2.50;;;;;;;;;;5092663;28;20389;-64
2023/08/06 01:10:26;;;;;;;2.10;2.00;;;;;;;;;;5092275;28;20498;-64
2023/08/06 01:12:59;;;;;;;2.17;1.87;;;;;;;;;;5091953;28;20448;-64
2023/08/06 01:15:33;;;;;;;2.70;1.90;;;;;;;;;;5092401;28;20782;-64
2023/08/06 01:18:00;;;;;;;2.40;2.30;;;;;;;;;;5092882;28;20456;-64
2023/08/06 01:20:32;;;;;;;4.10;2.20;;;;;;;;;;5097556;28;20459;-64
2023/08/06 01:22:58;;;;;;;1.70;1.60;;;;;;;;;;5099522;28;20527;-64
2023/08/06 01:25:30;;;;;;;3.10;2.13;;;;;;;;;;5099846;28;20814;-64
2023/08/06 01:27:58;;;;;;;3.17;2.47;;;;;;;;;;5099491;28;20420;-64
2023/08/06 01:30:29;;;;;;;3.70;2.30;;;;;;;;;;5099245;28;20799;-64
2023/08/06 01:33:03;;;;;;;5.17;2.57;;;;;;;;;;5098802;28;20412;-64
2023/08/06 01:35:31;;;;;;;2.07;1.93;;;;;;;;;;5098987;28;20397;-64
2023/08/06 01:37:57;;;;;;;3.13;2.80;;;;;;;;;;5098592;28;20465;-64
2023/08/06 01:40:25;;;;;;;2.50;2.30;;;;;;;;;;5098899;28;20405;-64
2023/08/06 01:42:50;;;;;;;2.40;2.20;;;;;;;;;;5098744;28;20407;-64
2023/08/06 01:45:16;;;;;;;2.30;2.20;;;;;;;;;;5098672;28;20427;-64
2023/08/06 01:47:42;;;;;;;2.70;2.50;;;;;;;;;;5098786;28;20417;-64
2023/08/06 01:50:11;;;;;;;2.13;2.03;;;;;;;;;;5098417;28;20422;-64
2023/08/06 01:52:37;;;;;;;2.70;2.50;;;;;;;;;;5099169;28;20403;-64
2023/08/06 01:55:03;;;;;;;2.60;2.50;;;;;;;;;;5098582;28;20444;-64
2023/08/06 01:57:29;;;;;;;2.70;2.60;;;;;;;;;;5098598;28;20940;-64
2023/08/06 01:59:55;;;;;;;2.57;2.37;;;;;;;;;;5098799;28;20471;-64
2023/08/06 02:02:21;;;;;;;2.10;2.00;;;;;;;;;;5098584;28;20403;-64
2023/08/06 02:04:49;;;;;;;2.37;2.23;;;;;;;;;;5098483;28;20408;-64
2023/08/06 02:07:15;;;;;;;4.20;2.90;;;;;;;;;;5098534;28;20419;-64
2023/08/06 02:09:41;;;;;;;3.90;2.47;;;;;;;;;;5098341;28;20416;-64
2023/08/06 02:12:10;;;;;;;3.50;2.43;;;;;;;;;;5098351;28;20464;-64
2023/08/06 02:14:36;;;;;;;3.10;2.60;;;;;;;;;;5098424;28;20427;-64
2023/08/06 02:17:02;;;;;;;5.13;3.20;;;;;;;;;;5098636;28;20483;-64
2023/08/06 02:19:28;;;;;;;4.70;2.90;;;;;;;;;;5098118;28;20459;-64
2023/08/06 02:21:54;;;;;;;7.23;2.90;;;;;;;;;;5098447;28;20409;-64
2023/08/06 02:24:19;;;;;;;2.93;2.57;;;;;;;;;;5098294;28;20468;-64
2023/08/06 02:26:46;;;;;;;4.23;2.90;;;;;;;;;;5098445;28;20430;-65
2023/08/06 02:29:14;;;;;;;4.10;2.60;;;;;;;;;;5098302;28;20428;-64
2023/08/06 02:31:40;;;;;;;2.73;2.53;;;;;;;;;;5095534;28;20455;-64
2023/08/06 02:34:09;;;;;;;7.80;2.57;;;;;;;;;;5094866;28;20447;-64
2023/08/06 02:36:37;;;;;;;9.13;3.20;;;;;;;;;;5094823;28;20424;-64
2023/08/06 02:39:03;;;;;;;2.70;2.60;;;;;;;;;;5094967;28;20965;-63
2023/08/06 02:41:29;;;;;;;5.57;3.00;;;;;;;;;;5094794;28;20404;-64
2023/08/06 02:43:55;;;;;;;7.90;3.67;;;;;;;;;;5094755;28;20926;-64
2023/08/06 02:46:23;;;;;;;3.37;3.10;;;;;;;;;;5094971;28;20419;-61
2023/08/06 02:48:52;;;;;;;3.47;3.10;;;;;;;;;;5094753;28;20932;-61
2023/08/06 02:51:18;;;;;;;3.70;3.00;;;;;;;;;;5094615;28;20440;-61
2023/08/06 02:53:46;;;;;;;5.10;2.47;;;;;;;;;;5094442;28;20426;-61
2023/08/06 02:56:12;;;;;;;2.90;2.30;;;;;;;;;;5094787;28;20517;-61
2023/08/06 02:58:38;;;;;;;4.43;2.87;;;;;;;;;;5094481;28;20518;-61
2023/08/06 03:01:07;;;;;;;2.50;2.40;;;;;;;;;;5093786;28;20443;-61
2023/08/06 03:03:33;;;;;;;2.47;1.90;;;;;;;;;;5094315;28;20833;-61
2023/08/06 03:06:00;;;;;;;2.07;1.97;;;;;;;;;;5094395;28;20891;-61
2023/08/06 03:08:28;;;;;;;2.03;1.67;;;;;;;;;;5094337;28;20413;-61
2023/08/06 03:10:54;;;;;;;2.10;1.90;;;;;;;;;;5093996;28;20432;-61
2023/08/06 03:13:20;;;;;;;1.20;1.20;;;;;;;;;;5094100;28;20474;-61
2023/08/06 03:15:58;;;;;;;1.83;1.50;;;;;;;;;;5094009;28;20421;-61
2023/08/06 03:18:25;;;;;;;2.30;1.30;;;;;;;;;;5094151;28;20562;-61
2023/08/06 03:20:52;;;;;;;1.27;1.13;;;;;;;;;;5094533;28;20855;-60
2023/08/06 03:23:18;;;;;;;1.47;0.90;;;;;;;;;;5094247;28;20899;-60
2023/08/06 03:25:45;;;;;;;1.10;1.00;;;;;;;;;;5094160;28;20913;-61
2023/08/06 03:28:11;;;;;;;0.87;0.87;;;;;;;;;;5093755;28;20432;-61
2023/08/06 03:30:37;;;;;;;0.87;0.87;;;;;;;;;;5094071;28;20415;-61
2023/08/06 03:33:03;;;;;;;1.90;1.10;;;;;;;;;;5093978;28;20407;-61
2023/08/06 03:35:29;;;;;;;0.90;0.90;;;;;;;;;;5093921;28;20439;-61
2023/08/06 03:37:55;;;;;;;1.60;0.93;;;;;;;;;;5093802;28;20463;-60
2023/08/06 03:40:21;;;;;;;1.80;0.87;;;;;;;;;;5093871;28;20801;-61
2023/08/06 03:42:49;;;;;;;0.60;0.60;;;;;;;;;;5092623;28;20413;-60
2023/08/06 03:45:15;;;;;;;1.60;0.60;;;;;;;;;;5093717;28;20501;-61
2023/08/06 03:47:41;;;;;;;1.27;1.20;;;;;;;;;;5093756;28;20459;-61
2023/08/06 03:50:07;;;;;;;2.20;0.77;;;;;;;;;;5093438;28;20909;-61
2023/08/06 03:52:33;;;;;;;1.03;0.80;;;;;;;;;;5093267;28;20921;-61
2023/08/06 03:54:59;;;;;;;1.47;0.63;;;;;;;;;;5094029;28;20407;-63
2023/08/06 03:57:25;;;;;;;2.20;1.07;;;;;;;;;;5093523;28;20465;-61
2023/08/06 03:59:51;;;;;;;3.50;1.20;;;;;;;;;;5093508;28;20415;-61
2023/08/06 04:02:17;;;;;;;1.37;0.77;;;;;;;;;;5091916;28;20471;-61
2023/08/06 04:04:43;;;;;;;0.97;0.60;;;;;;;;;;5092946;28;20460;-61
2023/08/06 04:07:09;;;;;;;3.70;0.90;;;;;;;;;;5093127;28;20799;-60
2023/08/06 04:09:51;;;;;;;5.57;1.30;;;;;;;;;;5093328;28;20436;-61
2023/08/06 04:12:17;;;;;;;1.23;0.93;;;;;;;;;;5093289;28;20434;-60
2023/08/06 04:14:43;;;;;;;4.20;1.47;;;;;;;;;;5092944;28;20580;-61
2023/08/06 04:17:11;;;;;;;0.90;0.90;;;;;;;;;;5093160;28;20456;-60
2023/08/06 04:19:37;;;;;;;2.00;1.13;;;;;;;;;;5092861;28;20516;-61
2023/08/06 04:22:03;;;;;;;2.30;1.30;;;;;;;;;;5093216;28;20500;-60
2023/08/06 04:24:29;;;;;;;2.43;1.40;;;;;;;;;;5093474;28;20437;-60
2023/08/06 04:26:58;;;;;;;5.17;1.60;;;;;;;;;;5093200;28;20421;-61
2023/08/06 04:29:24;;;;;;;5.43;1.80;;;;;;;;;;5092909;28;20432;-62
2023/08/06 04:31:50;;;;;;;5.13;2.00;;;;;;;;;;5093050;28;20830;-62
2023/08/06 04:34:16;;;;;;;7.00;1.67;;;;;;;;;;5092975;28;20419;-62
2023/08/06 04:36:41;;;;;;;4.70;1.87;;;;;;;;;;5092721;28;20529;-62
2023/08/06 04:39:07;;;;;;;6.93;2.07;;;;;;;;;;5092501;28;20469;-62
2023/08/06 04:41:33;;;;;;;2.03;1.40;;;;;;;;;;5092580;28;20463;-62
2023/08/06 04:43:59;;;;;;;5.03;1.80;;;;;;;;;;5092655;28;20418;-62
2023/08/06 04:46:28;;;;;;;6.73;1.67;;;;;;;;;;5092611;28;20912;-62
2023/08/06 04:48:57;;;;;;;4.33;1.90;;;;;;;;;;5092567;28;20418;-62
2023/08/06 04:51:23;;;;;;;5.67;2.20;;;;;;;;;;5092685;28;20797;-62
2023/08/06 04:53:51;;;;;;;6.13;2.37;;;;;;;;;;5090601;28;20434;-62
2023/08/06 04:56:22;;;;;;;5.80;2.27;;;;;;;;;;5091160;28;20562;-62
2023/08/06 04:58:48;;;;;;;11.90;2.20;;;;;;;;;;5091107;28;20477;-62
2023/08/06 05:01:14;;;;;;;6.03;2.30;;;;;;;;;;5092559;28;20513;-62
2023/08/06 05:03:40;;;;;;;5.70;2.10;;;;;;;;;;5092382;28;20437;-62
2023/08/06 05:06:06;;;;;;;6.87;2.10;;;;;;;;;;5092358;28;20425;-62
2023/08/06 05:08:34;;;;;;;4.50;2.10;;;;;;;;;;5092204;28;20448;-62
2023/08/06 05:11:00;;;;;;;6.13;1.70;;;;;;;;;;5092172;28;20501;-62
2023/08/06 05:13:26;;;;;;;10.77;2.43;;;;;;;;;;5092294;28;20492;-62
2023/08/06 05:15:57;;;;;;;10.00;2.20;;;;;;;;;;5092239;28;20546;-62
2023/08/06 05:18:23;;;;;;;4.23;2.33;;;;;;;;;;5092204;28;20472;-62
2023/08/06 05:20:50;;;;;;;16.40;2.17;;;;;;;;;;5092518;28;20429;-64
2023/08/06 05:23:18;;;;;;;6.77;2.03;;;;;;;;;;5092130;28;20413;-62
2023/08/06 05:25:44;;;;;;;9.60;2.63;;;;;;;;;;5091790;28;20490;-62
2023/08/06 05:28:10;;;;;;;8.00;2.23;;;;;;;;;;5091117;28;20448;-62
2023/08/06 05:30:39;;;;;;;15.27;2.70;;;;;;;;;;5092138;28;20413;-62
2023/08/06 05:33:06;;;;;;;7.30;2.50;;;;;;;;;;5091997;28;20421;-62
2023/08/06 05:35:32;;;;;;;10.37;2.47;;;;;;;;;;5092085;28;20939;-62
2023/08/06 05:38:00;;;;;;;7.60;2.87;;;;;;;;;;5092087;28;20491;-62
2023/08/06 05:40:26;;;;;;;6.73;2.20;;;;;;;;;;5092374;28;20413;-62
2023/08/06 05:42:54;;;;;;;5.60;2.10;;;;;;;;;;5091983;28;20429;-62
2023/08/06 05:45:20;;;;;;;9.97;2.60;;;;;;;;;;5091543;28;20414;-62
2023/08/06 05:47:48;;;;;;;3.73;1.90;;;;;;;;;;5092028;28;20420;-62
2023/08/06 05:50:14;;;;;;;9.30;2.83;;;;;;;;;;5091788;28;20572;-62
2023/08/06 05:52:40;;;;;;;10.40;1.77;;;;;;;;;;5092140;28;20501;-62
2023/08/06 05:55:06;;;;;;;10.80;1.93;;;;;;;;;;5092187;28;20868;-62
2023/08/06 05:57:35;;;;;;;10.67;1.87;;;;;;;;;;5091642;28;20465;-62
2023/08/06 06:00:06;;;;;;;5.97;2.13;;;;;;;;;;5091542;28;20988;-62
2023/08/06 06:02:31;;;;;;;6.57;2.20;;;;;;;;;;5090880;28;20401;-62
2023/08/06 06:04:57;;;;;;;8.73;2.17;;;;;;;;;;5091285;28;20766;-62
2023/08/06 06:07:23;;;;;;;4.40;1.50;;;;;;;;;;5093744;28;20478;-62
2023/08/06 06:09:50;;;;;;;8.20;2.20;;;;;;;;;;5095265;28;20409;-62
2023/08/06 06:12:16;;;;;;;4.37;1.63;;;;;;;;;;5095503;28;20429;-62
2023/08/06 06:14:44;;;;;;;6.27;2.33;;;;;;;;;;5095510;28;20434;-62
2023/08/06 06:17:10;;;;;;;3.20;1.83;;;;;;;;;;5095158;28;20421;-62
2023/08/06 06:19:36;;;;;;;4.87;1.87;;;;;;;;;;5095501;28;20409;-62
2023/08/06 06:22:02;;;;;;;12.50;2.37;;;;;;;;;;5094087;28;20885;-62
2023/08/06 06:24:28;;;;;;;2.73;1.50;;;;;;;;;;5095333;28;20493;-62
2023/08/06 06:26:54;;;;;;;7.50;1.90;;;;;;;;;;5095423;28;20516;-63
2023/08/06 06:29:22;;;;;;;8.53;2.20;;;;;;;;;;5095223;28;20401;-62
2023/08/06 06:31:48;;;;;;;2.90;1.33;;;;;;;;;;5095320;28;20977;-62
2023/08/06 06:34:14;;;;;;;4.37;1.73;;;;;;;;;;5094974;28;20417;-62
2023/08/06 06:36:40;;;;;;;4.63;2.13;;;;;;;;;;5095490;28;20799;-62
2023/08/06 06:39:06;;;;;;;10.63;1.70;;;;;;;;;;5095536;28;20458;-62
2023/08/06 06:41:33;;;;;;;3.70;1.60;;;;;;;;;;5095390;28;20485;-62
2023/08/06 06:43:59;;;;;;;9.87;1.83;;;;;;;;;;5095470;28;20431;-62
2023/08/06 06:46:25;;;;;;;5.47;2.10;;;;;;;;;;5095366;28;20770;-61
2023/08/06 06:48:51;;;;;;;14.97;5.43;;;;;;;;;;5094901;28;20505;-61
2023/08/06 06:51:17;;;;;;;8.87;2.33;;;;;;;;;;5095242;28;20884;-62
2023/08/06 06:53:43;;;;;;;4.50;4.10;;;;;;;;;;5094684;28;20425;-62
2023/08/06 06:56:09;;;;;;;1.97;1.87;;;;;;;;;;5095191;28;20425;-62
2023/08/06 06:58:35;;;;;;;6.60;1.73;;;;;;;;;;5095075;28;20496;-61
2023/08/06 07:01:03;;;;;;;3.63;1.57;;;;;;;;;;5094272;28;20502;-60
2023/08/06 07:03:32;;;;;;;1.90;1.80;;;;;;;;;;5092128;28;20458;-61
2023/08/06 07:06:03;;;;;;;3.80;1.60;;;;;;;;;;5093929;28;20405;-61
2023/08/06 07:08:29;;;;;;;2.60;1.20;;;;;;;;;;5093615;28;20445;-62
2023/08/06 07:11:05;;;;;;;5.20;2.47;;;;;;;;;;5094727;28;20433;-61
2023/08/06 07:13:31;;;;;;;1.30;1.00;;;;;;;;;;5094720;28;20446;-61
2023/08/06 07:15:57;;;;;;;1.90;1.33;;;;;;;;;;5094915;28;20681;-61
2023/08/06 07:18:28;;;;;;;2.97;1.60;;;;;;;;;;5094587;28;20479;-61
2023/08/06 07:20:55;;;;;;;2.00;1.20;;;;;;;;;;5095110;28;20443;-62
2023/08/06 07:23:22;;;;;;;4.30;1.23;;;;;;;;;;5095065;28;20501;-61
2023/08/06 07:25:50;;;;;;;3.20;1.30;;;;;;;;;;5093439;28;20809;-62
2023/08/06 07:28:17;;;;;;;7.23;2.77;;;;;;;;;;5093358;28;20468;-61
2023/08/06 07:30:43;;;;;;;3.33;1.20;;;;;;;;;;5093323;28;20430;-62
2023/08/06 07:33:09;;;;;;;1.20;0.90;;;;;;;;;;5093329;28;20429;-62
2023/08/06 07:35:35;;;;;;;2.97;1.13;;;;;;;;;;5093738;28;20402;-62
2023/08/06 07:38:01;;;;;;;0.77;0.70;;;;;;;;;;5093927;28;20469;-62
2023/08/06 07:40:27;;;;;;;2.87;0.80;;;;;;;;;;5094326;28;20765;-61
2023/08/06 07:42:53;;;;;;;3.07;2.87;;;;;;;;;;5094173;28;20486;-61
2023/08/06 07:45:19;;;;;;;1.27;0.60;;;;;;;;;;5094344;28;20489;-62
2023/08/06 07:47:45;;;;;;;0.90;0.90;;;;;;;;;;5094137;28;20438;-62
2023/08/06 07:50:13;;;;;;;1.03;0.60;;;;;;;;;;5093979;28;20858;-61
2023/08/06 07:52:39;;;;;;;3.13;0.50;;;;;;;;;;5093966;28;20427;-62
2023/08/06 07:55:08;;;;;;;1.37;1.37;;;;;;;;;;5091511;28;20442;-61
2023/08/06 07:57:37;;;;;;;1.10;1.00;;;;;;;;;;5093286;28;20976;-62
2023/08/06 08:00:04;;;;;;;1.63;0.70;;;;;;;;;;5093364;28;20422;-62
2023/08/06 08:02:32;;;;;;;0.63;0.63;;;;;;;;;;5093771;28;20426;-62
2023/08/06 08:04:58;;;;;;;0.60;0.50;;;;;;;;;;5093902;28;20434;-62
2023/08/06 08:07:24;;;;;;;0.50;0.50;;;;;;;;;;5093725;28;20881;-62
2023/08/06 08:09:50;;;;;;;1.50;0.60;;;;;;;;;;5093620;28;20414;-62
2023/08/06 08:12:16;;;;;;;0.50;0.50;;;;;;;;;;5093508;28;20449;-62
2023/08/06 08:14:45;;;;;;;1.53;0.50;;;;;;;;;;5093427;28;20470;-62
2023/08/06 08:17:11;;;;;;;1.47;0.47;;;;;;;;;;5094020;28;20418;-62
2023/08/06 08:19:37;;;;;;;0.47;0.47;;;;;;;;;;5093754;28;20430;-61
2023/08/06 08:22:03;;;;;;;0.40;0.40;;;;;;;;;;5093731;28;20516;-62
2023/08/06 08:24:32;;;;;;;0.40;0.40;;;;;;;;;;5093850;28;20430;-62
2023/08/06 08:26:58;;;;;;;0.50;0.50;;;;;;;;;;5093570;28;20468;-62
2023/08/06 08:29:24;;;;;;;0.77;0.60;;;;;;;;;;5092534;28;20433;-62
2023/08/06 08:31:50;;;;;;;0.50;0.50;;;;;;;;;;5093450;28;20477;-62
2023/08/06 08:34:19;;;;;;;1.17;0.50;;;;;;;;;;5093077;28;20429;-62
2023/08/06 08:36:47;;;;;;;1.47;0.60;;;;;;;;;;5092502;28;20930;-62
2023/08/06 08:39:14;;;;;;;0.90;0.47;;;;;;;;;;5092827;28;20503;-62
2023/08/06 08:41:42;;;;;;;0.80;0.60;;;;;;;;;;5092676;28;20419;-61
2023/08/06 08:44:10;;;;;;;0.73;0.60;;;;;;;;;;5093290;28;20452;-61
2023/08/06 08:46:39;;;;;;;3.43;1.30;;;;;;;;;;5093739;28;20751;-60
2023/08/06 08:49:07;;;;;;;0.40;0.40;;;;;;;;;;5093392;28;20808;-61
2023/08/06 08:51:37;;;;;;;4.57;0.70;;;;;;;;;;5093541;28;20425;-61
2023/08/06 08:54:04;;;;;;;1.33;0.57;;;;;;;;;;5093080;28;20440;-61
2023/08/06 08:56:30;;;;;;;0.60;0.53;;;;;;;;;;5093100;28;20449;-61
2023/08/06 08:58:59;;;;;;;0.50;0.50;;;;;;;;;;5092996;28;21005;-61
2023/08/06 09:01:25;;;;;;;0.50;0.50;;;;;;;;;;5093048;28;20453;-61
2023/08/06 09:03:52;;;;;;;1.27;0.70;;;;;;;;;;5092827;28;20829;-61
2023/08/06 09:06:21;;;;;;;0.50;0.50;;;;;;;;;;5092890;28;20889;-61
2023/08/06 09:08:52;;;;;;;1.17;0.60;;;;;;;;;;5092053;28;20418;-61
2023/08/06 09:11:20;;;;;;;0.57;0.50;;;;;;;;;;5091865;28;20445;-61
2023/08/06 09:13:46;;;;;;;1.80;0.50;;;;;;;;;;5092656;28;20434;-61
2023/08/06 09:16:12;;;;;;;0.50;0.47;;;;;;;;;;5092567;28;20410;-61
2023/08/06 09:18:39;;;;;;;0.77;0.53;;;;;;;;;;5092497;28;20466;-61
2023/08/06 09:21:05;;;;;;;1.53;0.77;;;;;;;;;;5092713;28;20406;-62
2023/08/06 09:23:33;;;;;;;0.73;0.73;;;;;;;;;;5092632;28;20402;-61
2023/08/06 09:26:02;;;;;;;0.80;0.40;;;;;;;;;;5092415;28;20424;-61
2023/08/06 09:28:43;;;;;;;0.90;0.50;;;;;;;;;;5092525;28;20842;-61
2023/08/06 09:31:10;;;;;;;2.20;0.40;;;;;;;;;;5092861;28;20405;-61
2023/08/06 09:33:36;;;;;;;0.60;0.40;;;;;;;;;;5092751;28;20409;-61
2023/08/06 09:36:12;;;;;;;2.40;0.50;;;;;;;;;;5092567;28;20483;-61
2023/08/06 09:38:41;;;;;;;0.40;0.40;;;;;;;;;;5092530;28;20490;-62
2023/08/06 09:41:09;;;;;;;1.67;1.67;;;;;;;;;;5094461;28;20789;-61
2023/08/06 09:43:44;;;;;;;0.90;0.40;;;;;;;;;;5096690;28;20419;-61
2023/08/06 09:46:16;;;;;;;2.73;0.50;;;;;;;;;;5096652;28;20417;-61
2023/08/06 09:48:44;;;;;;;0.40;0.40;;;;;;;;;;5096799;28;20773;-61
2023/08/06 09:51:11;;;;;;;0.90;0.37;;;;;;;;;;5096733;28;20901;-61
2023/08/06 09:53:38;;;;;;;0.40;0.40;;;;;;;;;;5096720;28;20431;-61
2023/08/06 09:56:07;;;;;;;0.40;0.40;;;;;;;;;;5096307;28;20421;-61
2023/08/06 09:58:33;;;;;;;0.60;0.40;;;;;;;;;;5096335;28;21022;-61
2023/08/06 10:01:02;;;;;;;0.40;0.40;;;;;;;;;;5096262;28;20406;-60
2023/08/06 10:03:31;;;;;;;0.40;0.40;;;;;;;;;;5095855;28;20520;-61
2023/08/06 10:05:57;;;;;;;0.77;0.43;;;;;;;;;;5096330;28;20506;-60
2023/08/06 10:08:23;;;;;;;0.40;0.40;;;;;;;;;;5096274;28;20491;-60
2023/08/06 10:10:49;;;;;;;0.60;0.40;;;;;;;;;;5096422;28;20503;-60
2023/08/06 10:13:19;;;;;;;0.40;0.40;;;;;;;;;;5095871;28;20522;-60
2023/08/06 10:15:45;;;;;;;0.40;0.40;;;;;;;;;;5096107;28;20450;-61
2023/08/06 10:18:12;;;;;;;4.60;4.10;;;;;;;;;;5096126;28;20454;-60
2023/08/06 10:20:38;;;;;;;1.00;0.50;;;;;;;;;;5096239;28;20437;-60
2023/08/06 10:23:07;;;;;;;0.50;0.50;;;;;;;;;;5095878;28;20415;-61
2023/08/06 10:25:41;;;;;;;3.73;0.60;;;;;;;;;;5095890;28;20516;-60
2023/08/06 10:28:09;;;;;;;0.80;0.50;;;;;;;;;;5095955;28;20766;-59
2023/08/06 10:30:41;;;;;;;0.47;0.47;;;;;;;;;;5094420;28;20444;-59
2023/08/06 10:33:07;;;;;;;0.50;0.50;;;;;;;;;;5095560;28;20892;-59
2023/08/06 10:35:44;;;;;;;0.50;0.50;;;;;;;;;;5094411;28;20541;-60
2023/08/06 10:38:11;;;;;;;0.50;0.50;;;;;;;;;;5095352;28;20867;-60
2023/08/06 10:40:39;;;;;;;0.70;0.60;;;;;;;;;;5094630;28;20560;-63
2023/08/06 10:43:10;;;;;;;0.80;0.50;;;;;;;;;;5093748;28;20436;-63
2023/08/06 10:45:36;;;;;;;0.40;0.40;;;;;;;;;;5092957;28;20444;-63
2023/08/06 10:48:03;;;;;;;0.50;0.50;;;;;;;;;;5094427;28;20418;-62
2023/08/06 10:50:31;;;;;;;0.50;0.50;;;;;;;;;;5094380;28;20447;-63
2023/08/06 10:52:58;;;;;;;0.53;0.53;;;;;;;;;;5093961;28;20439;-63
2023/08/06 10:55:25;;;;;;;0.40;0.40;;;;;;;;;;5094557;28;20495;-63
2023/08/06 10:57:51;;;;;;;0.50;0.50;;;;;;;;;;5094560;28;20463;-63
2023/08/06 11:00:17;;;;;;;0.60;0.60;;;;;;;;;;5094194;28;20438;-62
2023/08/06 11:02:44;;;;;;;0.40;0.40;;;;;;;;;;5093845;28;20414;-62
2023/08/06 11:05:10;;;;;;;0.50;0.50;;;;;;;;;;5094187;28;20442;-63
2023/08/06 11:07:36;;;;;;;0.40;0.40;;;;;;;;;;5094294;28;20400;-62
2023/08/06 11:10:06;;;;;;;0.70;0.40;;;;;;;;;;5094301;28;20479;-63
2023/08/06 11:12:33;;;;;;;0.77;0.40;;;;;;;;;;5093942;28;20434;-62
2023/08/06 11:14:59;;;;;;;0.50;0.50;;;;;;;;;;5092766;28;20430;-62
2023/08/06 11:17:25;;;;;;;0.40;0.40;;;;;;;;;;5094046;28;20496;-63
2023/08/06 11:19:52;;;;;;;0.40;0.40;;;;;;;;;;5094295;28;20407;-62
2023/08/06 11:22:18;;;;;;;0.40;0.40;;;;;;;;;;5092755;28;20424;-63
2023/08/06 11:24:44;;;;;;;0.40;0.40;;;;;;;;;;5094182;28;20879;-62
2023/08/06 11:27:17;;;;;;;14.20;11.60;;;;;;;;;;5093182;28;20430;-63
2023/08/06 11:29:46;;;;;;;0.97;0.60;;;;;;;;;;5092997;28;20458;-62
2023/08/06 11:32:12;;;;;;;0.50;0.50;;;;;;;;;;5091763;28;20514;-63
2023/08/06 11:34:39;;;;;;;1.70;0.40;;;;;;;;;;5093199;28;20420;-62
2023/08/06 11:37:06;;;;;;;1.00;0.60;;;;;;;;;;5091906;28;20424;-62
2023/08/06 11:39:38;;;;;;;0.60;0.60;;;;;;;;;;5092869;28;20834;-62
2023/08/06 11:42:07;;;;;;;0.60;0.60;;;;;;;;;;5093035;28;20914;-63
2023/08/06 11:44:35;;;;;;;0.90;0.70;;;;;;;;;;5093287;28;20478;-62
2023/08/06 11:47:01;;;;;;;0.57;0.40;;;;;;;;;;5093547;28;20401;-63
2023/08/06 11:49:40;;;;;;;0.43;0.43;;;;;;;;;;5093314;28;20462;-62
2023/08/06 11:52:11;;;;;;;0.40;0.40;;;;;;;;;;5093826;28;20439;-63
2023/08/06 11:54:37;;;;;;;0.60;0.60;;;;;;;;;;5093446;28;20471;-63
2023/08/06 11:57:05;;;;;;;0.50;0.50;;;;;;;;;;5092418;28;20453;-63
2023/08/06 11:59:31;;;;;;;0.70;0.63;;;;;;;;;;5093515;28;20427;-63
2023/08/06 12:01:57;;;;;;;0.60;0.60;;;;;;;;;;5093605;28;20878;-62
2023/08/06 12:04:23;;;;;;;0.63;0.63;;;;;;;;;;5092195;28;20448;-62
2023/08/06 12:06:49;;;;;;;1.27;0.73;;;;;;;;;;5093662;28;20432;-61
2023/08/06 12:09:15;;;;;;;1.67;0.93;;;;;;;;;;5092432;28;20469;-68
2023/08/06 12:11:41;;;;;;;2.00;0.70;;;;;;;;;;5092564;28;20474;-64
2023/08/06 12:14:10;;;;;;;0.70;0.70;;;;;;;;;;5093352;28;20420;-64
2023/08/06 12:16:36;;;;;;;1.57;1.57;;;;;;;;;;5093054;28;20480;-64
2023/08/06 12:19:02;;;;;;;3.80;3.70;;;;;;;;;;5093242;28;20553;-64
2023/08/06 12:21:28;;;;;;;0.70;0.70;;;;;;;;;;5093341;28;20793;-64
2023/08/06 12:23:54;;;;;;;1.73;0.80;;;;;;;;;;5092426;28;20415;-64
2023/08/06 12:26:20;;;;;;;0.40;0.40;;;;;;;;;;5092676;28;20437;-64
2023/08/06 12:28:46;;;;;;;0.50;0.40;;;;;;;;;;5092338;28;20408;-64
2023/08/06 12:31:12;;;;;;;0.90;0.50;;;;;;;;;;5093100;28;20489;-64
2023/08/06 12:33:41;;;;;;;0.70;0.70;;;;;;;;;;5092846;28;20417;-64
2023/08/06 12:36:09;;;;;;;0.40;0.40;;;;;;;;;;5092916;28;20508;-63
2023/08/06 12:38:35;;;;;;;0.57;0.57;;;;;;;;;;5092775;28;20495;-63
2023/08/06 12:41:01;;;;;;;9.93;2.13;;;;;;;;;;5093048;28;20453;-63
2023/08/06 12:43:29;;;;;;;4.73;1.07;;;;;;;;;;5093001;28;20404;-63
2023/08/06 12:45:55;;;;;;;1.83;0.73;;;;;;;;;;5092330;28;20418;-63
2023/08/06 12:48:23;;;;;;;0.60;0.60;;;;;;;;;;5092564;28;20410;-64
2023/08/06 12:50:54;;;;;;;0.70;0.70;;;;;;;;;;5092858;28;20463;-64
2023/08/06 12:53:22;;;;;;;0.50;0.50;;;;;;;;;;5093070;28;20481;-64
2023/08/06 12:55:50;;;;;;;3.30;0.60;;;;;;;;;;5092812;28;20426;-64
2023/08/06 12:58:16;;;;;;;0.80;0.80;;;;;;;;;;5093251;28;20931;-64
2023/08/06 13:00:42;;;;;;;1.87;0.67;;;;;;;;;;5092746;28;20406;-65
2023/08/06 13:03:08;;;;;;;0.70;0.70;;;;;;;;;;5092766;28;20416;-64
2023/08/06 13:05:34;;;;;;;0.80;0.80;;;;;;;;;;5092740;28;20421;-64
2023/08/06 13:08:00;;;;;;;1.53;0.60;;;;;;;;;;5092674;28;20414;-64
2023/08/06 13:10:29;;;;;;;2.87;0.90;;;;;;;;;;5092755;28;20413;-64
2023/08/06 13:12:55;;;;;;;0.50;0.50;;;;;;;;;;5092545;28;20456;-64
2023/08/06 13:15:22;;;;;;;0.50;0.50;;;;;;;;;;5092321;28;20430;-64
2023/08/06 13:17:48;;;;;;;4.10;0.70;;;;;;;;;;5092656;28;20498;-64
2023/08/06 13:20:17;;;;;;;0.50;0.50;;;;;;;;;;5092601;28;20505;-64
2023/08/06 13:22:46;;;;;;;0.93;0.80;;;;;;;;;;5092564;28;20468;-64
2023/08/06 13:25:16;;;;;;;0.90;0.70;;;;;;;;;;5092622;28;20415;-64
2023/08/06 13:27:45;;;;;;;1.90;1.80;;;;;;;;;;5091328;28;20441;-64
2023/08/06 13:30:12;;;;;;;1.60;0.57;;;;;;;;;;5092402;28;20916;-64
2023/08/06 13:32:38;;;;;;;0.70;0.70;;;;;;;;;;5091516;28;20433;-64
2023/08/06 13:35:07;;;;;;;1.90;0.77;;;;;;;;;;5092534;28;20418;-64
2023/08/06 13:37:33;;;;;;;0.73;0.73;;;;;;;;;;5092407;28;21040;-64
2023/08/06 13:39:59;;;;;;;0.80;0.80;;;;;;;;;;5092382;28;20434;-64
2023/08/06 13:42:25;;;;;;;0.50;0.50;;;;;;;;;;5092188;28;20472;-64
2023/08/06 13:44:51;;;;;;;0.70;0.70;;;;;;;;;;5092362;28;20425;-64
2023/08/06 13:47:17;;;;;;;1.80;1.70;;;;;;;;;;5092342;28;20434;-65
2023/08/06 13:49:43;;;;;;;0.60;0.60;;;;;;;;;;5092369;28;20434;-64
2023/08/06 13:52:09;;;;;;;0.70;0.70;;;;;;;;;;5092199;28;20435;-64
2023/08/06 13:54:35;;;;;;;0.80;0.80;;;;;;;;;;5092228;28;20425;-64
2023/08/06 13:57:00;;;;;;;0.70;0.70;;;;;;;;;;5092034;28;20414;-64
2023/08/06 13:59:26;;;;;;;0.60;0.60;;;;;;;;;;5091665;28;20472;-64
2023/08/06 14:01:53;;;;;;;0.60;0.60;;;;;;;;;;5091981;28;20465;-64
2023/08/06 14:04:21;;;;;;;0.57;0.57;;;;;;;;;;5092360;28;20391;-64
2023/08/06 14:06:47;;;;;;;0.90;0.63;;;;;;;;;;5092208;28;20425;-64
2023/08/06 14:09:18;;;;;;;0.67;0.67;;;;;;;;;;5092248;28;20786;-64
2023/08/06 14:11:46;;;;;;;0.80;0.80;;;;;;;;;;5090962;28;20493;-64
2023/08/06 14:14:12;;;;;;;0.70;0.70;;;;;;;;;;5092021;28;20463;-64
2023/08/06 14:16:41;;;;;;;0.80;0.80;;;;;;;;;;5091847;28;20451;-64
2023/08/06 14:19:07;;;;;;;1.33;0.80;;;;;;;;;;5091926;28;20302;-65
2023/08/06 14:21:33;;;;;;;0.90;0.90;;;;;;;;;;5092328;28;20406;-64
2023/08/06 14:23:59;;;;;;;0.53;0.53;;;;;;;;;;5092192;28;20402;-64
2023/08/06 14:26:27;;;;;;;0.90;0.90;;;;;;;;;;5092237;28;20404;-64
2023/08/06 14:28:54;;;;;;;0.80;0.60;;;;;;;;;;5095307;28;20420;-65
2023/08/06 14:31:21;;;;;;;1.27;0.70;;;;;;;;;;5096355;28;20497;-64
2023/08/06 14:33:47;;;;;;;1.27;0.80;;;;;;;;;;5096049;28;20410;-64
2023/08/06 14:36:13;;;;;;;0.60;0.60;;;;;;;;;;5096447;28;20429;-64
2023/08/06 14:38:38;;;;;;;0.70;0.70;;;;;;;;;;5095514;28;20462;-64
2023/08/06 14:41:06;;;;;;;0.60;0.60;;;;;;;;;;5095254;28;20430;-64
2023/08/06 14:43:34;;;;;;;0.70;0.70;;;;;;;;;;5095290;28;20486;-64